Terminal Aerodrome Forecast
Issued by NWS Huntsville, AL

Home | Current Version | Previous Version | Text Only | Print | Product List | Glossary On
Versions: 1 2 3 4 5 6 7 8 9 10 11 12 13 14 15 16 17 18 19 20 21 22 23 24 25 26 27 28 29 30 31 32 33 34 35 36
000
FTUS44 KHUN 262354 CCD
TAFMSL
TAF COR
KMSL 262354Z 2700/2724 12009KT P6SM -SHRA SCT025 BKN080 OVC150
     FM270300 12007KT P6SM -SHRA SCT015 BKN025 OVC035
     FM270600 12007KT 5SM -SHRA BR BKN008 OVC015
     FM271600 15005KT P6SM -SHRA BKN015 OVC025
     FM271900 15005KT P6SM SCT025 BKN040 BKN150 PROB30 2719/2724 3SM
      TSRA BKN025CB=

USA.gov is the U.S. government's official web portal to all federal, state and local government web resources and services.